Time;durP1;ratioP1;P1;durP2;ratioP2;P2;SDS_P1;SDS_P2;PMS_P1;PMS_P2;Temp;Humidity;BMP_temperature;BMP_pressure;BME280_temperature;BME280_humidity;BME280_pressure;Samples;Min_cycle;Max_cycle;Signal;HPM_P1;HPM_P2
2022/10/27 00:01:03;;;;;;;14.77;6.15;;;12.80;99.90;;;;;;5033257;28;20120;-74
2022/10/27 00:03:28;;;;;;;11.25;5.70;;;12.90;99.90;;;;;;5031704;28;20168;-74
2022/10/27 00:05:54;;;;;;;11.68;5.63;;;12.90;99.90;;;;;;5033061;28;20041;-74
2022/10/27 00:08:21;;;;;;;10.13;5.43;;;13.10;99.90;;;;;;5032957;28;20741;-74
2022/10/27 00:11:01;;;;;;;11.77;5.80;;;12.90;99.90;;;;;;5031663;28;20053;-74
2022/10/27 00:13:27;;;;;;;11.15;5.40;;;12.90;99.90;;;;;;5032417;28;20558;-73
2022/10/27 00:15:57;;;;;;;8.23;5.25;;;13.00;99.90;;;;;;5033069;28;20037;-73
2022/10/27 00:18:23;;;;;;;13.20;5.55;;;13.00;99.90;;;;;;5031811;28;20046;-74
2022/10/27 00:21:06;;;;;;;9.63;5.75;;;13.00;99.90;;;;;;5048135;28;20499;-74
2022/10/27 00:23:32;;;;;;;13.40;5.00;;;13.00;99.90;;;;;;5031155;28;20492;-73
2022/10/27 00:25:59;;;;;;;10.38;4.75;;;12.80;99.90;;;;;;5032760;28;20092;-74
2022/10/27 00:28:25;;;;;;;12.25;5.18;;;12.80;99.90;;;;;;5032619;28;20124;-74
2022/10/27 00:30:59;;;;;;;14.68;6.15;;;12.90;99.90;;;;;;5031204;28;20044;-74
2022/10/27 00:33:25;;;;;;;13.48;6.38;;;13.00;99.90;;;;;;5032167;28;20033;-74
2022/10/27 00:35:50;;;;;;;13.07;5.28;;;12.80;99.90;;;;;;5031397;28;20128;-73
2022/10/27 00:38:16;;;;;;;10.73;5.95;;;12.90;99.90;;;;;;5032306;28;20499;-74
2022/10/27 00:40:41;;;;;;;15.20;6.47;;;12.90;99.90;;;;;;5031077;28;20041;-74
2022/10/27 00:43:27;;;;;;;12.95;5.60;;;12.70;99.90;;;;;;5031878;28;20037;-73
2022/10/27 00:45:56;;;;;;;15.75;6.43;;;12.90;99.90;;;;;;5032268;28;20041;-73
2022/10/27 00:48:24;;;;;;;10.52;5.28;;;12.90;99.90;;;;;;5030996;28;20057;-74
2022/10/27 00:50:50;;;;;;;11.00;5.10;;;12.80;99.90;;;;;;5032063;28;20407;-74
2022/10/27 00:53:15;;;;;;;9.38;5.32;;;12.80;99.90;;;;;;5014074;28;20034;-73
2022/10/27 00:55:41;;;;;;;13.15;5.95;;;12.90;99.90;;;;;;5031845;28;20529;-73
2022/10/27 00:58:14;;;;;;;9.20;6.47;;;12.80;99.90;;;;;;5030928;28;20072;-73
2022/10/27 01:00:42;;;;;;;11.68;6.03;;;12.80;99.90;;;;;;5030841;28;20148;-74
2022/10/27 01:03:11;;;;;;;13.05;5.88;;;12.60;99.90;;;;;;5030258;28;20041;-74
2022/10/27 01:05:38;;;;;;;10.93;6.25;;;12.60;99.90;;;;;;5030655;28;20052;-74
2022/10/27 01:08:05;;;;;;;10.15;5.95;;;12.80;99.90;;;;;;5032002;28;20074;-74
2022/10/27 01:10:30;;;;;;;11.45;6.13;;;12.60;99.90;;;;;;5030523;28;20075;-74
2022/10/27 01:12:57;;;;;;;10.05;6.88;;;12.60;99.90;;;;;;5031440;28;20037;-74
2022/10/27 01:15:39;;;;;;;13.77;6.38;;;12.80;99.90;;;;;;5030516;28;20048;-73
2022/10/27 01:18:10;;;;;;;13.82;7.43;;;12.70;99.90;;;;;;5030471;28;20041;-73
2022/10/27 01:20:51;;;;;;;13.13;6.70;;;12.80;99.90;;;;;;5010551;28;20129;-73
2022/10/27 01:23:49;;;;;;;13.18;7.68;;;12.70;99.90;;;;;;5011507;28;20037;-73
2022/10/27 01:26:41;;;;;;;12.70;6.78;;;12.60;99.90;;;;;;5010736;28;20054;-73
2022/10/27 01:29:06;;;;;;;12.02;6.65;;;12.60;99.90;;;;;;5012026;28;20469;-74
2022/10/27 01:31:42;;;;;;;9.60;6.72;;;12.60;99.90;;;;;;5010479;28;20038;-73
2022/10/27 01:34:28;;;;;;;12.43;6.78;;;12.50;99.90;;;;;;5010281;28;20076;-73
2022/10/27 01:36:58;;;;;;;15.15;8.00;;;12.70;99.90;;;;;;5010694;28;20042;-74
2022/10/27 01:39:40;;;;;;;13.65;7.55;;;12.50;99.90;;;;;;5010646;28;20053;-73
2022/10/27 01:42:15;;;;;;;12.98;8.07;;;12.70;99.90;;;;;;5011908;28;20084;-74
2022/10/27 01:44:45;;;;;;;13.30;8.38;;;12.70;99.90;;;;;;5010635;28;20423;-74
2022/10/27 01:47:12;;;;;;;12.63;7.38;;;12.60;99.90;;;;;;5010363;28;20049;-74
2022/10/27 01:49:40;;;;;;;14.38;8.07;;;12.90;99.90;;;;;;5010523;28;20042;-73
2022/10/27 01:52:26;;;;;;;13.75;8.55;;;12.60;99.90;;;;;;5011704;28;20447;-73
2022/10/27 01:54:54;;;;;;;12.43;8.25;;;12.70;99.90;;;;;;5010523;28;20125;-73
2022/10/27 01:57:37;;;;;;;13.85;9.02;;;12.90;99.90;;;;;;5010277;28;20092;-73
2022/10/27 02:00:08;;;;;;;14.27;9.35;;;12.70;99.90;;;;;;5011865;28;20068;-73
2022/10/27 02:03:00;;;;;;;16.02;8.98;;;12.80;99.90;;;;;;5010313;28;20049;-74
2022/10/27 02:05:43;;;;;;;17.00;9.32;;;12.90;99.90;;;;;;5011653;28;20053;-74
2022/10/27 02:08:18;;;;;;;;;;;12.90;99.90;;;;;;5015845;28;20445;-74
2022/10/27 02:10:55;;;;;;;15.07;9.27;;;13.00;99.90;;;;;;5015507;28;19917;-74
2022/10/27 02:13:22;;;;;;;15.07;10.13;;;12.80;99.90;;;;;;5013680;28;20052;-74
2022/10/27 02:16:07;;;;;;;14.60;9.30;;;12.80;99.90;;;;;;5015327;28;20088;-74
2022/10/27 02:18:37;;;;;;;19.63;9.30;;;12.80;99.90;;;;;;5015218;28;20085;-74
2022/10/27 02:21:06;;;;;;;15.15;9.82;;;13.10;99.90;;;;;;4997557;28;20045;-73
2022/10/27 02:23:33;;;;;;;17.25;9.73;;;13.10;99.90;;;;;;5013371;28;20050;-74
2022/10/27 02:26:34;;;;;;;16.92;10.18;;;13.20;99.90;;;;;;5015207;28;20042;-73
2022/10/27 02:29:21;;;;;;;15.23;9.77;;;13.00;99.90;;;;;;5015335;28;20045;-73
2022/10/27 02:31:50;;;;;;;15.38;10.13;;;13.10;99.90;;;;;;5013829;28;20046;-73
2022/10/27 02:34:17;;;;;;;15.60;10.45;;;12.80;99.90;;;;;;5014697;28;20037;-73
2022/10/27 02:36:43;;;;;;;17.45;9.73;;;13.00;99.90;;;;;;5014939;28;20057;-74
2022/10/27 02:39:09;;;;;;;18.13;11.13;;;12.90;99.90;;;;;;5014768;28;20077;-74
2022/10/27 02:41:34;;;;;;;19.10;10.93;;;12.90;99.90;;;;;;5013469;28;20507;-73
2022/10/27 02:43:59;;;;;;;20.05;11.40;;;13.00;99.90;;;;;;5014337;28;20420;-74
2022/10/27 02:46:25;;;;;;;18.00;11.43;;;13.20;99.90;;;;;;5013661;28;20060;-73
2022/10/27 02:48:51;;;;;;;25.08;11.20;;;13.00;99.90;;;;;;5014724;28;20081;-74
2022/10/27 02:51:16;;;;;;;16.45;10.32;;;13.10;99.90;;;;;;5013310;28;20416;-74
2022/10/27 02:53:42;;;;;;;18.92;11.90;;;13.00;99.90;;;;;;5012847;28;20448;-73
2022/10/27 02:56:07;;;;;;;17.80;11.48;;;12.90;99.90;;;;;;5013513;28;20042;-73
2022/10/27 02:58:34;;;;;;;18.60;11.07;;;13.00;99.90;;;;;;5013218;28;20496;-73
2022/10/27 03:00:59;;;;;;;19.95;10.05;;;12.90;99.90;;;;;;5013214;28;20129;-73
2022/10/27 03:03:25;;;;;;;21.00;10.43;;;13.00;99.90;;;;;;5014121;28;20116;-73
2022/10/27 03:05:51;;;;;;;15.98;10.25;;;12.90;99.90;;;;;;5013006;28;20093;-73
2022/10/27 03:08:17;;;;;;;15.10;10.48;;;13.10;99.90;;;;;;5013913;28;20121;-74
2022/10/27 03:10:43;;;;;;;14.13;9.95;;;13.10;99.90;;;;;;5014457;28;20037;-73
2022/10/27 03:13:09;;;;;;;15.50;11.45;;;13.00;99.90;;;;;;5012566;28;20124;-74
2022/10/27 03:15:35;;;;;;;14.32;10.50;;;12.90;99.90;;;;;;5014362;28;20270;-73
2022/10/27 03:18:01;;;;;;;15.95;10.20;;;13.10;99.90;;;;;;5013937;28;20471;-73
2022/10/27 03:20:26;;;;;;;19.30;10.50;;;12.80;99.90;;;;;;5014127;28;20038;-73
2022/10/27 03:22:52;;;;;;;21.67;10.80;;;12.80;99.90;;;;;;5012299;28;20121;-73
2022/10/27 03:25:18;;;;;;;19.70;10.55;;;12.90;99.90;;;;;;5013939;28;20038;-74
2022/10/27 03:27:44;;;;;;;15.57;10.30;;;12.80;99.90;;;;;;5013948;28;20117;-73
2022/10/27 03:30:12;;;;;;;20.75;9.70;;;13.00;99.90;;;;;;5013854;28;20048;-74
2022/10/27 03:32:38;;;;;;;16.02;10.73;;;13.00;99.90;;;;;;5012565;28;20407;-73
2022/10/27 03:35:04;;;;;;;15.07;10.13;;;12.70;99.90;;;;;;5013928;28;20502;-73
2022/10/27 03:37:30;;;;;;;14.45;10.35;;;12.70;99.90;;;;;;5012409;28;20475;-74
2022/10/27 03:39:55;;;;;;;17.27;9.38;;;12.90;99.90;;;;;;5013678;28;20033;-73
2022/10/27 03:42:21;;;;;;;16.88;10.30;;;12.80;99.90;;;;;;5012403;28;20121;-74
2022/10/27 03:44:46;;;;;;;15.75;10.07;;;12.90;99.90;;;;;;5013768;28;20034;-73
2022/10/27 03:47:12;;;;;;;13.63;9.95;;;12.80;99.90;;;;;;5012196;28;20112;-74
2022/10/27 03:49:37;;;;;;;16.15;10.30;;;12.60;99.90;;;;;;5013598;28;20062;-73
2022/10/27 03:52:03;;;;;;;19.55;10.10;;;12.70;99.90;;;;;;5011550;28;20038;-73
2022/10/27 03:54:29;;;;;;;14.32;9.52;;;12.60;99.90;;;;;;5013329;28;20045;-74
2022/10/27 03:56:55;;;;;;;15.35;9.93;;;12.70;99.90;;;;;;5013649;28;20040;-73
2022/10/27 03:59:21;;;;;;;19.52;10.90;;;12.50;99.90;;;;;;5013715;28;20120;-73
2022/10/27 04:01:46;;;;;;;16.40;10.00;;;12.70;99.90;;;;;;5013421;28;20038;-74
2022/10/27 04:04:12;;;;;;;16.92;10.65;;;12.70;99.90;;;;;;5012875;28;20045;-74
2022/10/27 04:06:37;;;;;;;17.48;11.20;;;12.60;99.90;;;;;;5012089;28;20121;-73
2022/10/27 04:09:03;;;;;;;20.20;11.82;;;12.70;99.90;;;;;;5011799;28;20124;-73
2022/10/27 04:11:28;;;;;;;23.08;12.13;;;12.50;99.90;;;;;;5011770;28;20044;-74
2022/10/27 04:13:54;;;;;;;18.77;10.55;;;12.80;99.90;;;;;;5011472;28;20073;-74
2022/10/27 04:16:19;;;;;;;17.30;9.57;;;12.80;99.90;;;;;;5013109;28;20034;-74
2022/10/27 04:18:45;;;;;;;17.67;10.68;;;12.90;99.90;;;;;;5013052;28;20042;-74
2022/10/27 04:21:11;;;;;;;15.05;10.32;;;12.70;99.90;;;;;;5012877;28;20042;-74
2022/10/27 04:23:36;;;;;;;16.67;10.43;;;12.90;99.90;;;;;;5011095;28;20038;-74
2022/10/27 04:26:02;;;;;;;14.23;10.25;;;12.60;99.90;;;;;;5011598;28;20084;-73
2022/10/27 04:28:28;;;;;;;24.17;11.38;;;12.80;99.90;;;;;;5010982;28;20046;-74
2022/10/27 04:30:53;;;;;;;18.75;11.55;;;12.80;99.90;;;;;;5011303;28;20046;-74
2022/10/27 04:33:19;;;;;;;14.23;9.98;;;12.70;99.90;;;;;;5012387;28;20065;-74
2022/10/27 04:35:44;;;;;;;16.50;9.95;;;12.60;99.90;;;;;;5011319;28;20041;-74
2022/10/27 04:38:10;;;;;;;13.68;10.27;;;12.70;99.90;;;;;;5012825;28;20415;-73
2022/10/27 04:40:35;;;;;;;19.40;11.13;;;12.60;99.90;;;;;;5012843;28;20104;-74
2022/10/27 04:43:01;;;;;;;18.10;10.93;;;12.80;99.90;;;;;;5010898;28;20042;-74
2022/10/27 04:45:26;;;;;;;16.60;9.77;;;12.70;99.90;;;;;;5011494;28;20412;-74
2022/10/27 04:47:52;;;;;;;29.52;11.82;;;12.50;99.90;;;;;;5012532;28;20054;-74
2022/10/27 04:50:18;;;;;;;16.80;10.52;;;12.50;99.90;;;;;;5012363;28;20048;-75
2022/10/27 04:52:58;;;;;;;17.63;11.18;;;12.60;99.90;;;;;;5011995;28;20034;-74
2022/10/27 04:55:24;;;;;;;17.88;11.20;;;12.80;99.90;;;;;;5011192;28;20044;-74
2022/10/27 04:57:50;;;;;;;16.65;10.15;;;12.70;99.90;;;;;;5011053;28;20053;-74
2022/10/27 05:00:16;;;;;;;20.92;10.45;;;12.50;99.90;;;;;;5011290;28;20042;-75
2022/10/27 05:02:41;;;;;;;16.38;10.88;;;12.50;99.90;;;;;;5010565;28;20132;-75
2022/10/27 05:05:07;;;;;;;19.27;10.10;;;12.60;99.90;;;;;;5012467;28;20049;-75
2022/10/27 05:07:32;;;;;;;24.27;12.80;;;12.40;99.90;;;;;;5010847;28;20045;-74
2022/10/27 05:09:58;;;;;;;15.07;10.25;;;12.50;99.90;;;;;;5011170;28;20195;-74
2022/10/27 05:12:24;;;;;;;15.15;10.55;;;12.40;99.90;;;;;;5010352;28;20539;-75
2022/10/27 05:14:49;;;;;;;18.17;9.85;;;12.60;99.90;;;;;;5012162;28;20121;-74
2022/10/27 05:17:15;;;;;;;16.23;11.30;;;12.70;99.90;;;;;;5012040;28;20038;-75
2022/10/27 05:19:40;;;;;;;17.60;10.73;;;12.50;99.90;;;;;;5012028;28;20113;-75
2022/10/27 05:22:05;;;;;;;19.70;11.95;;;12.60;99.90;;;;;;5010764;28;20092;-75
2022/10/27 05:24:31;;;;;;;17.95;11.55;;;12.50;99.90;;;;;;5011884;28;20066;-75
2022/10/27 05:26:56;;;;;;;22.90;13.02;;;12.40;99.90;;;;;;5010669;28;20034;-75
2022/10/27 05:29:22;;;;;;;15.50;11.43;;;12.70;99.90;;;;;;5010840;28;20404;-75
2022/10/27 05:31:48;;;;;;;18.70;10.48;;;12.50;99.90;;;;;;5011679;28;20042;-75
2022/10/27 05:34:13;;;;;;;19.08;12.27;;;12.70;99.90;;;;;;5010169;28;20072;-75
2022/10/27 05:36:39;;;;;;;18.65;11.95;;;12.40;99.90;;;;;;5010560;28;20037;-75
2022/10/27 05:39:04;;;;;;;17.70;11.60;;;12.60;99.90;;;;;;5010553;28;20045;-75
2022/10/27 05:41:30;;;;;;;21.10;13.23;;;12.60;99.90;;;;;;5013715;28;20042;-74
2022/10/27 05:43:55;;;;;;;17.00;12.32;;;12.40;99.90;;;;;;4997969;28;20121;-75
2022/10/27 05:46:21;;;;;;;14.57;10.75;;;12.40;99.90;;;;;;5014678;28;20050;-75
2022/10/27 05:48:46;;;;;;;23.45;11.68;;;12.60;99.90;;;;;;5014391;28;20077;-75
2022/10/27 05:51:12;;;;;;;20.05;11.85;;;12.60;99.90;;;;;;5014682;28;20042;-75
2022/10/27 05:53:37;;;;;;;18.77;12.40;;;12.40;99.90;;;;;;5014125;28;20045;-74
2022/10/27 05:56:03;;;;;;;18.98;12.27;;;12.60;99.90;;;;;;5014375;28;20044;-74
2022/10/27 05:58:28;;;;;;;20.92;13.05;;;12.40;99.90;;;;;;5015661;28;20046;-74
2022/10/27 06:00:58;;;;;;;23.70;14.52;;;12.60;99.90;;;;;;5014290;28;20504;-74
2022/10/27 06:03:24;;;;;;;23.27;14.38;;;12.40;99.90;;;;;;4997756;28;20124;-74
2022/10/27 06:05:50;;;;;;;20.77;13.43;;;12.60;99.90;;;;;;5015565;28;20124;-74
2022/10/27 06:08:17;;;;;;;20.00;11.98;;;12.50;99.90;;;;;;5014067;28;20041;-74
2022/10/27 06:10:43;;;;;;;21.08;12.93;;;12.40;99.90;;;;;;5014155;28;20121;-75
2022/10/27 06:13:13;;;;;;;27.30;14.43;;;12.40;99.90;;;;;;5015101;28;20056;-75
2022/10/27 06:15:39;;;;;;;23.20;13.75;;;12.50;99.90;;;;;;5014203;28;20100;-75
2022/10/27 06:18:05;;;;;;;23.08;13.68;;;12.60;99.90;;;;;;5013993;28;20527;-74
2022/10/27 06:20:32;;;;;;;22.88;14.02;;;12.70;99.90;;;;;;5015355;28;20124;-75
2022/10/27 06:22:57;;;;;;;17.60;12.23;;;12.60;99.90;;;;;;5014850;28;20038;-75
2022/10/27 06:25:23;;;;;;;19.42;12.45;;;12.50;99.90;;;;;;5013999;28;20038;-74
2022/10/27 06:27:48;;;;;;;18.48;12.15;;;12.40;99.90;;;;;;5014970;28;20047;-75
2022/10/27 06:30:14;;;;;;;16.05;12.88;;;12.70;99.90;;;;;;5013816;28;20053;-74
2022/10/27 06:32:41;;;;;;;24.58;13.77;;;12.50;99.90;;;;;;5014799;28;20038;-75
2022/10/27 06:35:08;;;;;;;20.92;12.20;;;12.50;99.90;;;;;;5013559;28;20045;-74
2022/10/27 06:37:37;;;;;;;18.48;13.15;;;12.50;99.90;;;;;;5015066;28;20038;-74
2022/10/27 06:40:03;;;;;;;20.27;12.88;;;12.50;99.90;;;;;;5013764;28;20066;-74
2022/10/27 06:42:29;;;;;;;27.20;13.88;;;12.80;99.90;;;;;;5013234;28;20057;-74
2022/10/27 06:44:54;;;;;;;24.20;13.98;;;12.50;99.90;;;;;;5014613;28;20045;-75
2022/10/27 06:47:20;;;;;;;24.23;14.30;;;12.70;99.90;;;;;;5014548;28;20096;-75
2022/10/27 06:49:45;;;;;;;19.40;12.13;;;12.50;99.90;;;;;;5013317;28;20074;-74
2022/10/27 06:52:11;;;;;;;19.48;12.38;;;12.50;99.90;;;;;;5013893;28;20064;-74
2022/10/27 06:54:37;;;;;;;20.25;14.80;;;12.50;99.90;;;;;;5014599;28;20514;-74
2022/10/27 06:57:02;;;;;;;23.13;13.38;;;12.60;99.90;;;;;;5013594;28;20049;-74
2022/10/27 06:59:28;;;;;;;19.45;12.75;;;12.80;99.90;;;;;;5013206;28;20073;-74
2022/10/27 07:01:53;;;;;;;24.80;13.90;;;12.80;99.90;;;;;;5013148;28;20050;-74
2022/10/27 07:04:19;;;;;;;18.45;12.35;;;12.80;99.90;;;;;;5013020;28;20046;-75
2022/10/27 07:06:44;;;;;;;19.38;12.93;;;12.70;99.90;;;;;;5014221;28;20042;-74
2022/10/27 07:09:10;;;;;;;19.00;12.32;;;12.70;99.90;;;;;;5013096;28;20049;-74
2022/10/27 07:11:36;;;;;;;19.48;12.80;;;12.80;99.90;;;;;;5013028;28;20042;-74
2022/10/27 07:14:02;;;;;;;22.58;13.38;;;12.70;99.90;;;;;;5012755;28;20030;-74
2022/10/27 07:16:27;;;;;;;21.77;13.38;;;12.80;99.90;;;;;;5014299;28;20034;-75
2022/10/27 07:18:53;;;;;;;21.38;13.20;;;12.70;99.90;;;;;;5013976;28;20492;-75
2022/10/27 07:21:18;;;;;;;22.60;13.25;;;12.80;99.90;;;;;;5014173;28;20124;-74
2022/10/27 07:23:43;;;;;;;20.98;12.93;;;13.00;99.90;;;;;;5012294;28;20042;-74
2022/10/27 07:26:09;;;;;;;21.13;13.07;;;13.00;99.90;;;;;;5012740;28;20046;-74
2022/10/27 07:28:35;;;;;;;19.00;12.95;;;13.00;99.90;;;;;;5013656;28;20377;-75
2022/10/27 07:31:00;;;;;;;18.73;12.80;;;13.00;99.90;;;;;;4996473;28;20237;-74
2022/10/27 07:33:26;;;;;;;28.08;13.95;;;12.90;99.90;;;;;;5013480;28;20042;-74
2022/10/27 07:35:52;;;;;;;27.65;14.15;;;13.10;99.90;;;;;;5012405;28;20058;-74
2022/10/27 07:38:18;;;;;;;19.20;12.80;;;13.10;99.90;;;;;;5013647;28;20125;-74
2022/10/27 07:40:44;;;;;;;23.00;14.02;;;13.20;99.90;;;;;;5012566;28;20050;-74
2022/10/27 07:43:10;;;;;;;18.73;12.73;;;13.30;99.90;;;;;;5013218;28;20048;-74
2022/10/27 07:45:37;;;;;;;24.00;14.30;;;13.60;99.90;;;;;;5013560;28;20041;-74
2022/10/27 07:48:04;;;;;;;20.83;13.63;;;13.60;99.90;;;;;;5012060;28;20038;-74
2022/10/27 07:50:32;;;;;;;19.98;13.10;;;13.40;99.90;;;;;;5013530;28;20091;-74
2022/10/27 07:52:59;;;;;;;19.83;12.82;;;13.70;99.90;;;;;;5011763;28;20075;-74
2022/10/27 07:55:25;;;;;;;20.23;13.38;;;13.50;99.90;;;;;;5012390;28;20038;-74
2022/10/27 07:58:05;;;;;;;17.77;11.35;;;13.80;99.90;;;;;;5012048;28;20042;-74
2022/10/27 08:00:32;;;;;;;23.25;13.65;;;13.80;99.90;;;;;;5012193;28;20145;-74
2022/10/27 08:03:02;;;;;;;17.63;11.55;;;13.70;99.90;;;;;;5012817;28;20121;-73
2022/10/27 08:05:29;;;;;;;18.15;12.18;;;13.90;99.90;;;;;;5028405;28;20514;-74
2022/10/27 08:08:05;;;;;;;20.48;11.32;;;13.90;99.90;;;;;;5032981;28;20047;-74
2022/10/27 08:10:33;;;;;;;15.88;11.13;;;14.00;99.90;;;;;;5033123;28;20040;-74
2022/10/27 08:12:58;;;;;;;18.55;11.52;;;13.90;99.90;;;;;;5032683;28;20112;-74
2022/10/27 08:15:24;;;;;;;19.25;12.00;;;14.20;99.90;;;;;;5032823;28;20605;-74
2022/10/27 08:17:51;;;;;;;19.02;11.82;;;14.40;99.90;;;;;;5031409;28;20045;-74
2022/10/27 08:20:17;;;;;;;15.65;11.95;;;14.40;99.90;;;;;;5032655;28;20057;-74
2022/10/27 08:22:43;;;;;;;20.70;11.75;;;14.50;99.90;;;;;;5025949;28;20128;-74
2022/10/27 08:25:08;;;;;;;16.73;11.75;;;14.30;99.90;;;;;;5028435;28;20123;-74
2022/10/27 08:27:34;;;;;;;20.60;11.55;;;14.30;99.90;;;;;;5032550;28;20064;-72
2022/10/27 08:29:59;;;;;;;16.67;10.93;;;14.60;99.90;;;;;;5031549;28;20048;-74
2022/10/27 08:32:25;;;;;;;16.48;11.27;;;14.40;99.90;;;;;;5031184;28;20080;-74
2022/10/27 08:34:50;;;;;;;21.33;11.00;;;14.40;99.90;;;;;;5032492;28;20435;-74
2022/10/27 08:37:16;;;;;;;16.90;11.20;;;14.60;99.90;;;;;;5031253;28;20045;-74
2022/10/27 08:39:41;;;;;;;19.40;11.05;;;14.70;99.90;;;;;;5030984;28;20049;-74
2022/10/27 08:42:35;;;;;;;17.73;12.20;;;14.50;99.90;;;;;;5032108;28;20045;-74
2022/10/27 08:45:07;;;;;;;18.73;12.05;;;14.40;99.90;;;;;;5047746;28;20033;-75
2022/10/27 08:47:32;;;;;;;18.35;11.93;;;14.70;99.90;;;;;;5031069;28;20128;-74
2022/10/27 08:50:05;;;;;;;19.10;11.25;;;14.60;99.90;;;;;;5030839;28;20132;-74
2022/10/27 08:52:44;;;;;;;19.55;12.23;;;14.80;99.90;;;;;;5031812;28;20549;-74
2022/10/27 08:55:09;;;;;;;19.48;11.65;;;14.90;99.90;;;;;;5030671;28;20037;-74
2022/10/27 08:57:35;;;;;;;18.90;11.18;;;15.00;99.90;;;;;;5030868;28;20044;-74
2022/10/27 09:00:01;;;;;;;20.08;11.88;;;14.80;99.90;;;;;;5030669;28;20049;-74
2022/10/27 09:03:08;;;;;;;18.40;11.30;;;15.10;99.90;;;;;;5030217;28;20538;-74
2022/10/27 09:05:42;;;;;;;18.40;12.30;;;15.00;99.90;;;;;;5028815;28;20430;-73
2022/10/27 09:08:41;;;;;;;20.05;11.35;;;15.40;99.90;;;;;;5017441;28;20037;-74
2022/10/27 09:11:36;;;;;;;16.75;12.48;;;15.50;99.90;;;;;;5013621;28;20044;-74
2022/10/27 09:14:44;;;;;;;17.67;10.45;;;15.70;99.90;;;;;;5017717;28;20095;-74
2022/10/27 09:17:19;;;;;;;21.38;11.57;;;15.50;99.90;;;;;;5010954;28;20523;-74
2022/10/27 09:19:51;;;;;;;15.82;10.60;;;15.50;99.90;;;;;;5010805;28;20042;-74
2022/10/27 09:22:18;;;;;;;17.75;9.98;;;15.60;99.90;;;;;;5010507;28;20038;-75
2022/10/27 09:24:56;;;;;;;18.67;10.57;;;15.70;99.90;;;;;;5010517;28;20442;-74
2022/10/27 09:27:23;;;;;;;20.65;10.90;;;15.80;99.90;;;;;;5010619;28;20056;-74
2022/10/27 09:29:50;;;;;;;16.00;10.88;;;15.80;99.90;;;;;;5012068;28;20045;-73
2022/10/27 09:32:23;;;;;;;17.73;10.95;;;16.10;99.90;;;;;;5011778;28;20133;-73
2022/10/27 09:35:04;;;;;;;16.85;10.35;;;16.10;99.90;;;;;;5010508;28;20073;-74
2022/10/27 09:37:39;;;;;;;18.70;9.70;;;15.90;99.90;;;;;;5010547;28;20095;-74
2022/10/27 09:40:14;;;;;;;17.65;9.93;;;16.20;99.90;;;;;;5011717;28;20069;-74
2022/10/27 09:42:40;;;;;;;16.30;10.10;;;16.10;99.90;;;;;;5011551;28;20037;-74
2022/10/27 09:45:15;;;;;;;15.80;9.43;;;16.30;99.90;;;;;;5011587;28;20040;-74
2022/10/27 09:47:44;;;;;;;15.32;9.70;;;16.10;99.90;;;;;;5010504;28;20107;-76
2022/10/27 09:50:23;;;;;;;19.15;9.55;;;16.20;99.90;;;;;;5011644;28;20060;-78
2022/10/27 09:52:50;;;;;;;13.50;8.60;;;16.20;99.90;;;;;;4993731;28;20053;-76
2022/10/27 09:55:16;;;;;;;11.93;8.95;;;16.40;99.90;;;;;;4993862;28;20376;-76
2022/10/27 09:57:44;;;;;;;15.35;8.82;;;16.50;99.90;;;;;;4993913;28;20042;-76
2022/10/27 10:00:16;;;;;;;21.80;9.18;;;16.60;99.90;;;;;;5010509;28;20096;-76
2022/10/27 10:02:56;;;;;;;13.40;7.88;;;16.30;99.90;;;;;;5009871;28;20048;-76
2022/10/27 10:05:25;;;;;;;16.05;8.65;;;16.40;99.90;;;;;;5010679;28;20171;-76
2022/10/27 10:07:50;;;;;;;18.58;9.23;;;16.40;99.90;;;;;;5010080;28;20117;-76
2022/10/27 10:10:30;;;;;;;11.05;7.90;;;16.80;99.90;;;;;;4993793;28;20592;-76
2022/10/27 10:13:02;;;;;;;15.35;7.70;;;16.80;99.90;;;;;;5009594;28;20038;-76
2022/10/27 10:15:29;;;;;;;12.52;7.45;;;16.80;99.90;;;;;;5009916;28;20049;-76
2022/10/27 10:18:01;;;;;;;11.90;6.47;;;17.00;99.90;;;;;;5009916;28;20128;-76
2022/10/27 10:20:38;;;;;;;12.00;6.70;;;16.70;99.90;;;;;;5010045;28;20050;-76
2022/10/27 10:23:19;;;;;;;9.35;5.95;;;16.90;99.90;;;;;;4993213;28;20051;-77
2022/10/27 10:25:48;;;;;;;12.10;5.22;;;17.00;99.90;;;;;;4993543;28;20045;-77
2022/10/27 10:28:24;;;;;;;8.80;4.82;;;17.20;99.90;;;;;;5015289;28;20050;-77
2022/10/27 10:30:53;;;;;;;11.57;4.68;;;17.30;99.90;;;;;;4997571;28;20223;-77
2022/10/27 10:33:21;;;;;;;6.32;3.70;;;17.50;99.90;;;;;;5013639;28;20073;-77
2022/10/27 10:35:51;;;;;;;8.85;3.47;;;17.60;99.90;;;;;;5013736;28;20034;-77
2022/10/27 10:38:22;;;;;;;7.75;3.83;;;17.70;99.90;;;;;;5013755;28;20395;-77
2022/10/27 10:41:02;;;;;;;5.07;2.83;;;17.70;99.90;;;;;;5014486;28;20042;-79
2022/10/27 10:43:27;;;;;;;6.20;3.47;;;17.90;99.90;;;;;;5018666;28;20096;-77
2022/10/27 10:45:53;;;;;;;7.43;3.03;;;18.00;99.90;;;;;;5018247;28;20033;-77
2022/10/27 10:48:45;;;;;;;4.60;2.85;;;18.00;99.90;;;;;;5019731;28;20065;-76
2022/10/27 10:51:10;;;;;;;4.78;3.15;;;18.00;99.90;;;;;;5013399;28;20034;-77
2022/10/27 10:53:48;;;;;;;5.47;2.80;;;18.00;99.90;;;;;;5013970;28;20550;-78
2022/10/27 10:56:32;;;;;;;6.15;2.47;;;18.00;99.90;;;;;;5015439;28;20038;-77
2022/10/27 10:59:06;;;;;;;4.65;2.08;;;18.00;99.90;;;;;;4997795;28;20045;-77
2022/10/27 11:01:46;;;;;;;5.88;2.60;;;18.00;99.90;;;;;;5014036;28;20050;-77
2022/10/27 11:04:25;;;;;;;7.07;2.83;;;18.10;99.90;;;;;;5012878;28;20045;-78
2022/10/27 11:07:17;;;;;;;7.63;2.85;;;18.00;99.90;;;;;;5014973;28;20045;-78
2022/10/27 11:09:54;;;;;;;7.05;3.03;;;18.10;99.90;;;;;;5013826;28;20033;-78
2022/10/27 11:12:32;;;;;;;6.43;3.30;;;18.10;99.90;;;;;;5013286;28;20112;-77
2022/10/27 11:15:04;;;;;;;6.18;3.00;;;18.10;99.90;;;;;;5015109;28;20077;-77
2022/10/27 11:17:38;;;;;;;6.38;3.08;;;18.00;99.90;;;;;;5013575;28;20048;-77
2022/10/27 11:20:10;;;;;;;6.35;3.10;;;18.10;99.90;;;;;;4997513;28;20049;-77
2022/10/27 11:22:36;;;;;;;9.00;3.45;;;18.10;99.90;;;;;;4996694;28;20050;-78
2022/10/27 11:25:10;;;;;;;6.22;3.67;;;18.20;99.90;;;;;;4997376;28;20104;-76
2022/10/27 11:27:48;;;;;;;8.60;3.20;;;18.20;99.90;;;;;;5013198;28;20045;-77
2022/10/27 11:30:26;;;;;;;5.63;3.15;;;18.20;99.90;;;;;;5012974;28;20049;-71
2022/10/27 11:33:19;;;;;;;7.88;3.50;;;18.40;99.90;;;;;;5014049;28;20548;-73
2022/10/27 11:35:59;;;;;;;8.93;3.05;;;18.60;99.90;;;;;;5012764;28;20080;-73
2022/10/27 11:38:53;;;;;;;5.38;3.15;;;18.70;99.90;;;;;;5029263;28;20125;-72
2022/10/27 11:41:30;;;;;;;6.80;3.08;;;18.80;99.90;;;;;;5013028;28;20080;-72
2022/10/27 11:44:37;;;;;;;4.13;2.20;;;18.80;99.90;;;;;;5013443;28;20038;-72
2022/10/27 11:47:18;;;;;;;8.82;2.95;;;18.80;99.90;;;;;;5012510;28;20057;-72
2022/10/27 11:49:58;;;;;;;4.20;2.28;;;19.00;99.90;;;;;;5013692;28;20064;-72
2022/10/27 11:52:30;;;;;;;6.97;2.45;;;19.00;99.90;;;;;;5011758;28;20345;-72
2022/10/27 11:54:57;;;;;;;9.70;2.88;;;18.90;99.90;;;;;;5028673;28;20060;-72
2022/10/27 11:57:33;;;;;;;6.97;2.30;;;19.00;99.90;;;;;;5013198;28;20130;-72
2022/10/27 12:00:21;;;;;;;3.53;2.10;;;18.90;99.90;;;;;;5013335;28;20038;-72
2022/10/27 12:03:08;;;;;;;6.68;2.42;;;18.90;99.90;;;;;;5011880;28;20108;-72
2022/10/27 12:06:04;;;;;;;9.90;2.42;;;18.90;99.90;;;;;;5012017;28;20037;-72
2022/10/27 12:08:44;;;;;;;5.80;2.53;;;19.00;99.90;;;;;;5019889;28;20042;-73
2022/10/27 12:11:12;;;;;;;7.50;2.53;;;19.00;99.90;;;;;;5023839;28;20566;-72
2022/10/27 12:13:43;;;;;;;7.72;2.10;;;19.00;99.90;;;;;;5020843;28;20038;-72
2022/10/27 12:16:12;;;;;;;7.38;2.20;;;19.10;99.90;;;;;;5032715;28;20380;-72
2022/10/27 12:18:50;;;;;;;4.03;1.75;;;19.10;99.90;;;;;;5031437;28;20099;-72
2022/10/27 12:21:29;;;;;;;5.32;2.70;;;19.20;99.90;;;;;;5031666;28;20041;-72
2022/10/27 12:24:06;;;;;;;7.25;2.53;;;19.10;99.90;;;;;;5032313;28;20037;-72
2022/10/27 12:26:35;;;;;;;9.85;2.70;;;19.20;99.90;;;;;;5031227;28;20037;-72
2022/10/27 12:29:04;;;;;;;6.93;2.35;;;19.20;99.90;;;;;;5032385;28;20492;-74
2022/10/27 12:31:33;;;;;;;7.70;1.95;;;19.20;99.90;;;;;;5032407;28;20470;-72
2022/10/27 12:34:02;;;;;;;6.47;2.28;;;19.30;99.90;;;;;;5032061;28;20464;-72
2022/10/27 12:36:57;;;;;;;5.68;1.90;;;19.30;99.90;;;;;;5009113;28;20448;-72
2022/10/27 12:39:27;;;;;;;7.88;2.10;;;19.20;99.90;;;;;;5002938;28;20042;-72
2022/10/27 12:42:17;;;;;;;5.88;2.53;;;19.20;99.90;;;;;;5012748;28;20096;-72
2022/10/27 12:44:59;;;;;;;6.90;2.03;;;19.00;99.90;;;;;;5011515;28;20522;-72
2022/10/27 12:47:45;;;;;;;6.35;1.90;;;18.90;99.90;;;;;;5012386;28;20034;-72
2022/10/27 12:50:35;;;;;;;8.25;2.22;;;18.90;99.90;;;;;;5011969;28;20037;-71